Terminal Aerodrome Forecast
Issued by NWS Wilmington, OH

Current Version | Previous Version | Graphics & Text | Print | Product List | Glossary On
Versions: 1 2 3 4 5 6 7 8 9 10 11 12 13 14 15
000
FTUS41 KILN 230541
TAFDAY
TAF
KDAY 230541Z 2306/2406 08006KT P6SM FEW150
     FM231400 12010KT P6SM SCT110
     FM231600 13010G16KT P6SM BKN090
     FM232300 14008KT P6SM BKN070
     FM240400 17010KT P6SM BKN060 WS020/21045KT=

USA.gov is the U.S. government's official web portal to all federal, state and local government web resources and services.